sensor_id;sensor_type;location;lat;lon;timestamp;P1;durP1;ratioP1;P2;durP2;ratioP2
67715;SDS011;54508;43.238;25.306;2023-05-10T00:01:05;4.38;;;2.97;;
67715;SDS011;54508;43.238;25.306;2023-05-10T00:03:30;4.80;;;3.00;;
67715;SDS011;54508;43.238;25.306;2023-05-10T00:05:56;4.47;;;2.97;;
67715;SDS011;54508;43.238;25.306;2023-05-10T00:08:22;5.15;;;3.10;;
67715;SDS011;54508;43.238;25.306;2023-05-10T00:10:47;4.73;;;3.13;;
67715;SDS011;54508;43.238;25.306;2023-05-10T00:13:13;4.53;;;3.20;;
67715;SDS011;54508;43.238;25.306;2023-05-10T00:15:38;3.83;;;3.10;;
67715;SDS011;54508;43.238;25.306;2023-05-10T00:18:04;5.73;;;3.13;;
67715;SDS011;54508;43.238;25.306;2023-05-10T00:20:29;4.72;;;3.22;;
67715;SDS011;54508;43.238;25.306;2023-05-10T00:22:55;4.27;;;3.03;;
67715;SDS011;54508;43.238;25.306;2023-05-10T00:25:20;4.57;;;3.30;;
67715;SDS011;54508;43.238;25.306;2023-05-10T00:27:46;3.97;;;2.90;;
67715;SDS011;54508;43.238;25.306;2023-05-10T00:30:12;6.97;;;3.57;;
67715;SDS011;54508;43.238;25.306;2023-05-10T00:32:38;5.25;;;3.08;;
67715;SDS011;54508;43.238;25.306;2023-05-10T00:35:03;4.47;;;3.30;;
67715;SDS011;54508;43.238;25.306;2023-05-10T00:37:29;4.45;;;3.47;;
67715;SDS011;54508;43.238;25.306;2023-05-10T00:39:55;5.87;;;3.17;;
67715;SDS011;54508;43.238;25.306;2023-05-10T00:42:20;4.70;;;3.23;;
67715;SDS011;54508;43.238;25.306;2023-05-10T00:44:47;4.22;;;3.15;;
67715;SDS011;54508;43.238;25.306;2023-05-10T00:47:12;5.07;;;3.43;;
67715;SDS011;54508;43.238;25.306;2023-05-10T00:49:38;3.65;;;3.00;;
67715;SDS011;54508;43.238;25.306;2023-05-10T00:52:03;5.50;;;3.20;;
67715;SDS011;54508;43.238;25.306;2023-05-10T00:54:29;4.37;;;3.20;;
67715;SDS011;54508;43.238;25.306;2023-05-10T00:56:55;4.35;;;3.22;;
67715;SDS011;54508;43.238;25.306;2023-05-10T00:59:21;5.93;;;3.05;;
67715;SDS011;54508;43.238;25.306;2023-05-10T01:01:47;5.00;;;3.27;;
67715;SDS011;54508;43.238;25.306;2023-05-10T01:04:13;4.30;;;3.03;;
67715;SDS011;54508;43.238;25.306;2023-05-10T01:06:42;8.68;;;3.80;;
67715;SDS011;54508;43.238;25.306;2023-05-10T01:09:08;4.65;;;3.50;;
67715;SDS011;54508;43.238;25.306;2023-05-10T01:11:37;5.50;;;3.33;;
67715;SDS011;54508;43.238;25.306;2023-05-10T01:14:03;5.35;;;3.30;;
67715;SDS011;54508;43.238;25.306;2023-05-10T01:16:32;4.70;;;3.30;;
67715;SDS011;54508;43.238;25.306;2023-05-10T01:19:00;3.50;;;3.05;;
67715;SDS011;54508;43.238;25.306;2023-05-10T01:35:16;5.70;;;3.38;;
67715;SDS011;54508;43.238;25.306;2023-05-10T01:37:50;5.22;;;3.42;;
67715;SDS011;54508;43.238;25.306;2023-05-10T01:40:39;4.90;;;3.53;;
67715;SDS011;54508;43.238;25.306;2023-05-10T01:43:11;3.45;;;3.15;;
67715;SDS011;54508;43.238;25.306;2023-05-10T01:45:56;5.10;;;3.25;;
67715;SDS011;54508;43.238;25.306;2023-05-10T01:48:26;4.75;;;3.67;;
67715;SDS011;54508;43.238;25.306;2023-05-10T01:50:53;4.75;;;3.50;;
67715;SDS011;54508;43.238;25.306;2023-05-10T01:53:19;7.15;;;3.58;;
67715;SDS011;54508;43.238;25.306;2023-05-10T01:55:49;5.00;;;3.53;;
67715;SDS011;54508;43.238;25.306;2023-05-10T01:58:25;5.03;;;3.58;;
67715;SDS011;54508;43.238;25.306;2023-05-10T02:00:53;4.27;;;2.90;;
67715;SDS011;54508;43.238;25.306;2023-05-10T02:03:23;4.72;;;3.25;;
67715;SDS011;54508;43.238;25.306;2023-05-10T02:05:49;5.43;;;3.33;;
67715;SDS011;54508;43.238;25.306;2023-05-10T02:08:16;5.35;;;3.30;;
67715;SDS011;54508;43.238;25.306;2023-05-10T02:10:43;5.00;;;3.38;;
67715;SDS011;54508;43.238;25.306;2023-05-10T02:13:10;9.93;;;3.20;;
67715;SDS011;54508;43.238;25.306;2023-05-10T02:15:36;4.50;;;3.20;;
67715;SDS011;54508;43.238;25.306;2023-05-10T02:18:02;4.95;;;3.38;;
67715;SDS011;54508;43.238;25.306;2023-05-10T02:20:28;5.65;;;3.20;;
67715;SDS011;54508;43.238;25.306;2023-05-10T02:22:57;7.88;;;3.38;;
67715;SDS011;54508;43.238;25.306;2023-05-10T02:25:23;4.93;;;3.55;;
67715;SDS011;54508;43.238;25.306;2023-05-10T02:27:49;5.55;;;3.33;;
67715;SDS011;54508;43.238;25.306;2023-05-10T02:30:16;5.78;;;3.53;;
67715;SDS011;54508;43.238;25.306;2023-05-10T02:32:43;6.03;;;3.40;;
67715;SDS011;54508;43.238;25.306;2023-05-10T02:35:09;4.90;;;3.33;;
67715;SDS011;54508;43.238;25.306;2023-05-10T02:37:35;5.90;;;4.05;;
67715;SDS011;54508;43.238;25.306;2023-05-10T02:40:02;4.82;;;3.38;;
67715;SDS011;54508;43.238;25.306;2023-05-10T02:42:31;5.88;;;3.40;;
67715;SDS011;54508;43.238;25.306;2023-05-10T02:45:02;4.90;;;3.30;;
67715;SDS011;54508;43.238;25.306;2023-05-10T02:47:32;4.38;;;3.30;;
67715;SDS011;54508;43.238;25.306;2023-05-10T02:49:58;5.03;;;3.50;;
67715;SDS011;54508;43.238;25.306;2023-05-10T02:52:25;5.13;;;3.27;;
67715;SDS011;54508;43.238;25.306;2023-05-10T02:54:54;4.63;;;3.63;;
67715;SDS011;54508;43.238;25.306;2023-05-10T02:57:31;5.28;;;3.30;;
67715;SDS011;54508;43.238;25.306;2023-05-10T02:59:58;4.85;;;3.20;;
67715;SDS011;54508;43.238;25.306;2023-05-10T03:02:25;4.70;;;3.50;;
67715;SDS011;54508;43.238;25.306;2023-05-10T03:04:51;5.78;;;2.75;;
67715;SDS011;54508;43.238;25.306;2023-05-10T03:07:16;5.13;;;3.50;;
67715;SDS011;54508;43.238;25.306;2023-05-10T03:09:44;6.15;;;3.53;;
67715;SDS011;54508;43.238;25.306;2023-05-10T03:17:57;4.60;;;3.37;;
67715;SDS011;54508;43.238;25.306;2023-05-10T03:20:47;3.40;;;3.10;;
67715;SDS011;54508;43.238;25.306;2023-05-10T03:23:20;5.90;;;3.53;;
67715;SDS011;54508;43.238;25.306;2023-05-10T03:25:48;4.63;;;3.70;;
67715;SDS011;54508;43.238;25.306;2023-05-10T03:28:15;7.68;;;3.30;;
67715;SDS011;54508;43.238;25.306;2023-05-10T03:30:42;5.67;;;3.33;;
67715;SDS011;54508;43.238;25.306;2023-05-10T03:33:08;5.90;;;3.05;;
67715;SDS011;54508;43.238;25.306;2023-05-10T03:35:33;5.23;;;3.30;;
67715;SDS011;54508;43.238;25.306;2023-05-10T03:37:59;7.10;;;3.60;;
67715;SDS011;54508;43.238;25.306;2023-05-10T03:40:25;7.60;;;3.50;;
67715;SDS011;54508;43.238;25.306;2023-05-10T03:42:51;7.20;;;3.38;;
67715;SDS011;54508;43.238;25.306;2023-05-10T03:45:16;5.32;;;3.38;;
67715;SDS011;54508;43.238;25.306;2023-05-10T03:47:42;5.75;;;3.58;;
67715;SDS011;54508;43.238;25.306;2023-05-10T03:50:07;6.27;;;3.53;;
67715;SDS011;54508;43.238;25.306;2023-05-10T03:52:33;4.30;;;3.17;;
67715;SDS011;54508;43.238;25.306;2023-05-10T03:54:58;5.28;;;3.10;;
67715;SDS011;54508;43.238;25.306;2023-05-10T03:57:24;4.50;;;3.30;;
67715;SDS011;54508;43.238;25.306;2023-05-10T03:59:49;5.37;;;3.30;;
67715;SDS011;54508;43.238;25.306;2023-05-10T04:02:15;6.72;;;3.40;;
67715;SDS011;54508;43.238;25.306;2023-05-10T04:04:40;7.03;;;3.63;;
67715;SDS011;54508;43.238;25.306;2023-05-10T04:07:06;6.60;;;3.53;;
67715;SDS011;54508;43.238;25.306;2023-05-10T04:09:32;6.53;;;3.42;;
67715;SDS011;54508;43.238;25.306;2023-05-10T04:11:58;4.97;;;3.77;;
67715;SDS011;54508;43.238;25.306;2023-05-10T04:14:24;4.90;;;3.20;;
67715;SDS011;54508;43.238;25.306;2023-05-10T04:16:50;6.97;;;3.20;;
67715;SDS011;54508;43.238;25.306;2023-05-10T04:19:15;5.77;;;3.37;;
67715;SDS011;54508;43.238;25.306;2023-05-10T04:21:41;5.93;;;3.90;;
67715;SDS011;54508;43.238;25.306;2023-05-10T04:24:06;5.10;;;3.10;;
67715;SDS011;54508;43.238;25.306;2023-05-10T04:26:32;4.67;;;3.20;;
67715;SDS011;54508;43.238;25.306;2023-05-10T04:28:57;4.93;;;3.27;;
67715;SDS011;54508;43.238;25.306;2023-05-10T04:31:22;8.82;;;3.55;;
67715;SDS011;54508;43.238;25.306;2023-05-10T04:33:48;7.40;;;3.10;;
67715;SDS011;54508;43.238;25.306;2023-05-10T04:36:14;6.43;;;3.53;;
67715;SDS011;54508;43.238;25.306;2023-05-10T04:38:40;4.93;;;3.33;;
67715;SDS011;54508;43.238;25.306;2023-05-10T04:41:06;4.47;;;3.23;;
67715;SDS011;54508;43.238;25.306;2023-05-10T04:43:32;5.90;;;3.30;;
67715;SDS011;54508;43.238;25.306;2023-05-10T04:45:58;4.87;;;3.23;;
67715;SDS011;54508;43.238;25.306;2023-05-10T04:48:23;3.50;;;3.20;;
67715;SDS011;54508;43.238;25.306;2023-05-10T04:50:48;4.18;;;3.25;;
67715;SDS011;54508;43.238;25.306;2023-05-10T04:53:14;7.07;;;3.30;;
67715;SDS011;54508;43.238;25.306;2023-05-10T04:55:39;5.23;;;3.20;;
67715;SDS011;54508;43.238;25.306;2023-05-10T04:58:05;5.83;;;3.37;;
67715;SDS011;54508;43.238;25.306;2023-05-10T05:00:30;5.13;;;3.70;;
67715;SDS011;54508;43.238;25.306;2023-05-10T05:02:56;5.43;;;3.28;;
67715;SDS011;54508;43.238;25.306;2023-05-10T05:05:21;7.10;;;3.90;;
67715;SDS011;54508;43.238;25.306;2023-05-10T05:07:46;6.63;;;3.77;;
67715;SDS011;54508;43.238;25.306;2023-05-10T05:10:12;5.47;;;3.20;;
67715;SDS011;54508;43.238;25.306;2023-05-10T05:12:37;4.27;;;3.50;;
67715;SDS011;54508;43.238;25.306;2023-05-10T05:15:03;8.73;;;3.80;;
67715;SDS011;54508;43.238;25.306;2023-05-10T05:17:30;5.65;;;3.50;;
67715;SDS011;54508;43.238;25.306;2023-05-10T05:19:56;8.60;;;4.20;;
67715;SDS011;54508;43.238;25.306;2023-05-10T05:22:21;14.67;;;6.00;;
67715;SDS011;54508;43.238;25.306;2023-05-10T05:24:56;23.60;;;7.78;;
67715;SDS011;54508;43.238;25.306;2023-05-10T05:27:23;23.15;;;11.00;;
67715;SDS011;54508;43.238;25.306;2023-05-10T05:29:53;17.48;;;8.48;;
67715;SDS011;54508;43.238;25.306;2023-05-10T05:32:19;24.48;;;14.68;;
67715;SDS011;54508;43.238;25.306;2023-05-10T05:34:45;21.42;;;12.02;;
67715;SDS011;54508;43.238;25.306;2023-05-10T05:37:17;41.93;;;16.00;;
67715;SDS011;54508;43.238;25.306;2023-05-10T05:39:44;43.05;;;26.90;;
67715;SDS011;54508;43.238;25.306;2023-05-10T05:42:10;33.53;;;20.40;;
67715;SDS011;54508;43.238;25.306;2023-05-10T05:44:36;17.52;;;8.15;;
67715;SDS011;54508;43.238;25.306;2023-05-10T05:47:01;22.10;;;6.82;;
67715;SDS011;54508;43.238;25.306;2023-05-10T05:49:27;17.97;;;5.93;;
67715;SDS011;54508;43.238;25.306;2023-05-10T05:51:53;13.48;;;5.63;;
67715;SDS011;54508;43.238;25.306;2023-05-10T05:54:18;15.27;;;5.77;;
67715;SDS011;54508;43.238;25.306;2023-05-10T05:56:44;15.47;;;5.73;;
67715;SDS011;54508;43.238;25.306;2023-05-10T05:59:09;14.20;;;6.00;;
67715;SDS011;54508;43.238;25.306;2023-05-10T06:01:36;14.45;;;5.40;;
67715;SDS011;54508;43.238;25.306;2023-05-10T06:04:01;18.33;;;7.15;;
67715;SDS011;54508;43.238;25.306;2023-05-10T06:06:27;7.13;;;5.45;;
67715;SDS011;54508;43.238;25.306;2023-05-10T06:08:52;8.67;;;4.87;;
67715;SDS011;54508;43.238;25.306;2023-05-10T06:11:18;9.70;;;4.85;;
67715;SDS011;54508;43.238;25.306;2023-05-10T06:13:43;18.65;;;5.50;;
67715;SDS011;54508;43.238;25.306;2023-05-10T06:16:09;10.63;;;5.10;;
67715;SDS011;54508;43.238;25.306;2023-05-10T06:18:35;29.52;;;7.70;;
67715;SDS011;54508;43.238;25.306;2023-05-10T06:21:01;14.90;;;6.03;;
67715;SDS011;54508;43.238;25.306;2023-05-10T06:23:26;24.23;;;6.82;;
67715;SDS011;54508;43.238;25.306;2023-05-10T06:25:52;14.07;;;5.00;;
67715;SDS011;54508;43.238;25.306;2023-05-10T06:28:17;19.63;;;4.60;;
67715;SDS011;54508;43.238;25.306;2023-05-10T06:30:43;10.23;;;4.82;;
67715;SDS011;54508;43.238;25.306;2023-05-10T06:33:08;11.32;;;5.65;;
67715;SDS011;54508;43.238;25.306;2023-05-10T06:35:34;15.50;;;4.80;;
67715;SDS011;54508;43.238;25.306;2023-05-10T06:37:59;10.38;;;4.22;;
67715;SDS011;54508;43.238;25.306;2023-05-10T06:40:24;13.35;;;5.22;;
67715;SDS011;54508;43.238;25.306;2023-05-10T06:42:50;7.97;;;4.27;;
67715;SDS011;54508;43.238;25.306;2023-05-10T06:45:16;5.37;;;4.30;;
67715;SDS011;54508;43.238;25.306;2023-05-10T06:47:42;8.30;;;5.10;;
67715;SDS011;54508;43.238;25.306;2023-05-10T06:50:08;17.43;;;5.07;;
67715;SDS011;54508;43.238;25.306;2023-05-10T06:52:34;9.40;;;5.20;;
67715;SDS011;54508;43.238;25.306;2023-05-10T06:54:59;16.77;;;5.90;;
67715;SDS011;54508;43.238;25.306;2023-05-10T06:57:25;13.27;;;4.57;;
67715;SDS011;54508;43.238;25.306;2023-05-10T06:59:51;10.82;;;5.10;;
67715;SDS011;54508;43.238;25.306;2023-05-10T07:02:17;12.90;;;4.67;;
67715;SDS011;54508;43.238;25.306;2023-05-10T07:04:42;8.00;;;4.75;;
67715;SDS011;54508;43.238;25.306;2023-05-10T07:07:08;10.23;;;5.40;;
67715;SDS011;54508;43.238;25.306;2023-05-10T07:09:33;9.07;;;4.97;;
67715;SDS011;54508;43.238;25.306;2023-05-10T07:11:59;10.20;;;4.72;;
67715;SDS011;54508;43.238;25.306;2023-05-10T07:14:24;11.20;;;4.97;;
67715;SDS011;54508;43.238;25.306;2023-05-10T07:16:50;12.17;;;4.87;;
67715;SDS011;54508;43.238;25.306;2023-05-10T07:19:15;11.05;;;4.88;;
67715;SDS011;54508;43.238;25.306;2023-05-10T07:21:41;12.63;;;4.57;;
67715;SDS011;54508;43.238;25.306;2023-05-10T07:24:08;11.15;;;4.10;;
67715;SDS011;54508;43.238;25.306;2023-05-10T07:26:33;13.10;;;4.27;;
67715;SDS011;54508;43.238;25.306;2023-05-10T07:28:59;7.07;;;4.30;;
67715;SDS011;54508;43.238;25.306;2023-05-10T07:31:24;8.93;;;4.40;;
67715;SDS011;54508;43.238;25.306;2023-05-10T07:33:50;9.33;;;4.20;;
67715;SDS011;54508;43.238;25.306;2023-05-10T07:36:15;8.57;;;3.73;;
67715;SDS011;54508;43.238;25.306;2023-05-10T07:38:41;11.27;;;4.50;;
67715;SDS011;54508;43.238;25.306;2023-05-10T07:41:06;7.05;;;4.38;;
67715;SDS011;54508;43.238;25.306;2023-05-10T07:43:32;10.90;;;4.93;;
67715;SDS011;54508;43.238;25.306;2023-05-10T07:45:57;14.00;;;6.10;;
67715;SDS011;54508;43.238;25.306;2023-05-10T07:48:24;11.68;;;5.70;;
67715;SDS011;54508;43.238;25.306;2023-05-10T07:50:50;16.75;;;6.63;;
67715;SDS011;54508;43.238;25.306;2023-05-10T07:53:15;17.92;;;5.68;;
67715;SDS011;54508;43.238;25.306;2023-05-10T07:55:41;8.57;;;3.80;;
67715;SDS011;54508;43.238;25.306;2023-05-10T07:58:07;6.97;;;4.22;;
67715;SDS011;54508;43.238;25.306;2023-05-10T08:00:32;9.43;;;4.37;;
67715;SDS011;54508;43.238;25.306;2023-05-10T08:02:59;7.38;;;4.05;;
67715;SDS011;54508;43.238;25.306;2023-05-10T08:05:24;9.37;;;3.83;;
67715;SDS011;54508;43.238;25.306;2023-05-10T08:07:50;11.25;;;4.30;;
67715;SDS011;54508;43.238;25.306;2023-05-10T08:10:15;10.30;;;4.00;;
67715;SDS011;54508;43.238;25.306;2023-05-10T08:12:41;8.35;;;4.07;;
67715;SDS011;54508;43.238;25.306;2023-05-10T08:15:07;5.73;;;3.73;;
67715;SDS011;54508;43.238;25.306;2023-05-10T08:17:33;8.13;;;4.43;;
67715;SDS011;54508;43.238;25.306;2023-05-10T08:19:59;11.70;;;4.60;;
67715;SDS011;54508;43.238;25.306;2023-05-10T08:22:25;17.25;;;4.18;;
67715;SDS011;54508;43.238;25.306;2023-05-10T08:24:54;9.55;;;7.07;;
67715;SDS011;54508;43.238;25.306;2023-05-10T08:27:19;28.33;;;17.48;;
67715;SDS011;54508;43.238;25.306;2023-05-10T08:29:46;26.05;;;19.05;;
67715;SDS011;54508;43.238;25.306;2023-05-10T08:32:12;18.15;;;10.52;;
67715;SDS011;54508;43.238;25.306;2023-05-10T08:34:37;11.30;;;5.70;;
67715;SDS011;54508;43.238;25.306;2023-05-10T08:37:03;7.03;;;4.83;;
67715;SDS011;54508;43.238;25.306;2023-05-10T08:39:28;18.30;;;4.70;;
67715;SDS011;54508;43.238;25.306;2023-05-10T08:41:54;20.08;;;4.35;;
67715;SDS011;54508;43.238;25.306;2023-05-10T08:44:23;18.73;;;4.37;;
67715;SDS011;54508;43.238;25.306;2023-05-10T08:46:48;18.77;;;4.45;;
67715;SDS011;54508;43.238;25.306;2023-05-10T08:49:18;9.10;;;3.72;;
67715;SDS011;54508;43.238;25.306;2023-05-10T08:51:47;9.13;;;4.15;;
67715;SDS011;54508;43.238;25.306;2023-05-10T08:54:16;10.18;;;3.97;;
67715;SDS011;54508;43.238;25.306;2023-05-10T08:56:41;12.97;;;3.60;;
67715;SDS011;54508;43.238;25.306;2023-05-10T08:59:07;14.40;;;3.72;;
67715;SDS011;54508;43.238;25.306;2023-05-10T09:01:32;11.10;;;3.60;;
67715;SDS011;54508;43.238;25.306;2023-05-10T09:04:00;7.50;;;3.55;;
67715;SDS011;54508;43.238;25.306;2023-05-10T09:06:25;4.17;;;3.77;;
67715;SDS011;54508;43.238;25.306;2023-05-10T09:08:51;6.97;;;3.60;;
67715;SDS011;54508;43.238;25.306;2023-05-10T09:11:17;8.77;;;4.03;;
67715;SDS011;54508;43.238;25.306;2023-05-10T09:13:42;8.27;;;3.80;;
67715;SDS011;54508;43.238;25.306;2023-05-10T09:16:08;9.80;;;3.43;;
67715;SDS011;54508;43.238;25.306;2023-05-10T09:18:34;6.30;;;3.58;;
67715;SDS011;54508;43.238;25.306;2023-05-10T09:20:59;5.67;;;3.50;;
67715;SDS011;54508;43.238;25.306;2023-05-10T09:23:25;5.97;;;3.20;;
67715;SDS011;54508;43.238;25.306;2023-05-10T09:26:03;9.30;;;3.70;;
67715;SDS011;54508;43.238;25.306;2023-05-10T09:28:33;6.57;;;3.20;;
67715;SDS011;54508;43.238;25.306;2023-05-10T09:31:00;5.50;;;3.28;;
67715;SDS011;54508;43.238;25.306;2023-05-10T09:33:26;4.67;;;3.23;;
67715;SDS011;54508;43.238;25.306;2023-05-10T09:35:52;7.32;;;3.25;;
67715;SDS011;54508;43.238;25.306;2023-05-10T09:38:17;5.73;;;3.47;;
67715;SDS011;54508;43.238;25.306;2023-05-10T09:40:45;6.07;;;3.40;;
67715;SDS011;54508;43.238;25.306;2023-05-10T09:43:19;6.15;;;3.75;;
67715;SDS011;54508;43.238;25.306;2023-05-10T09:45:45;12.38;;;3.92;;
67715;SDS011;54508;43.238;25.306;2023-05-10T09:48:14;6.28;;;3.13;;
67715;SDS011;54508;43.238;25.306;2023-05-10T09:50:39;7.03;;;3.40;;
67715;SDS011;54508;43.238;25.306;2023-05-10T09:53:05;8.50;;;3.30;;
67715;SDS011;54508;43.238;25.306;2023-05-10T09:55:41;4.93;;;3.30;;
67715;SDS011;54508;43.238;25.306;2023-05-10T09:58:09;9.15;;;3.03;;
67715;SDS011;54508;43.238;25.306;2023-05-10T10:00:36;9.68;;;3.25;;
67715;SDS011;54508;43.238;25.306;2023-05-10T10:03:04;5.82;;;2.58;;
67715;SDS011;54508;43.238;25.306;2023-05-10T10:05:31;4.30;;;3.40;;
67715;SDS011;54508;43.238;25.306;2023-05-10T10:07:57;5.07;;;3.08;;
67715;SDS011;54508;43.238;25.306;2023-05-10T10:10:24;9.00;;;2.70;;
67715;SDS011;54508;43.238;25.306;2023-05-10T10:12:50;4.90;;;2.97;;
67715;SDS011;54508;43.238;25.306;2023-05-10T10:15:16;6.03;;;3.23;;
67715;SDS011;54508;43.238;25.306;2023-05-10T10:17:42;6.90;;;3.38;;
67715;SDS011;54508;43.238;25.306;2023-05-10T10:20:09;5.50;;;3.10;;
67715;SDS011;54508;43.238;25.306;2023-05-10T10:22:36;5.65;;;3.67;;
67715;SDS011;54508;43.238;25.306;2023-05-10T10:25:02;5.47;;;3.42;;
67715;SDS011;54508;43.238;25.306;2023-05-10T10:35:59;10.57;;;4.50;;
67715;SDS011;54508;43.238;25.306;2023-05-10T10:38:35;6.72;;;2.72;;
67715;SDS011;54508;43.238;25.306;2023-05-10T10:47:05;11.95;;;3.00;;
67715;SDS011;54508;43.238;25.306;2023-05-10T10:49:38;7.40;;;3.60;;
67715;SDS011;54508;43.238;25.306;2023-05-10T10:57:26;6.47;;;3.53;;
67715;SDS011;54508;43.238;25.306;2023-05-10T11:02:44;6.65;;;3.15;;
67715;SDS011;54508;43.238;25.306;2023-05-10T11:07:56;7.65;;;2.75;;
67715;SDS011;54508;43.238;25.306;2023-05-10T11:10:22;10.55;;;3.17;;
67715;SDS011;54508;43.238;25.306;2023-05-10T11:13:07;4.72;;;3.13;;
67715;SDS011;54508;43.238;25.306;2023-05-10T11:15:37;6.07;;;3.20;;
67715;SDS011;54508;43.238;25.306;2023-05-10T11:18:20;11.38;;;3.00;;
67715;SDS011;54508;43.238;25.306;2023-05-10T11:21:08;6.78;;;2.95;;
67715;SDS011;54508;43.238;25.306;2023-05-10T11:26:17;8.02;;;3.13;;
67715;SDS011;54508;43.238;25.306;2023-05-10T11:31:09;11.82;;;7.30;;
67715;SDS011;54508;43.238;25.306;2023-05-10T11:36:17;14.02;;;5.70;;
67715;SDS011;54508;43.238;25.306;2023-05-10T11:38:44;11.45;;;5.68;;
67715;SDS011;54508;43.238;25.306;2023-05-10T11:41:10;11.52;;;5.93;;
67715;SDS011;54508;43.238;25.306;2023-05-10T11:43:38;8.63;;;4.93;;
67715;SDS011;54508;43.238;25.306;2023-05-10T11:46:04;13.25;;;5.70;;
67715;SDS011;54508;43.238;25.306;2023-05-10T11:48:31;13.57;;;5.38;;
67715;SDS011;54508;43.238;25.306;2023-05-10T11:50:57;10.73;;;4.95;;
67715;SDS011;54508;43.238;25.306;2023-05-10T11:53:23;11.75;;;4.90;;
67715;SDS011;54508;43.238;25.306;2023-05-10T11:55:50;11.00;;;4.73;;
67715;SDS011;54508;43.238;25.306;2023-05-10T11:58:17;6.85;;;4.65;;
67715;SDS011;54508;43.238;25.306;2023-05-10T12:00:43;9.83;;;4.70;;
67715;SDS011;54508;43.238;25.306;2023-05-10T12:03:08;6.80;;;3.97;;
67715;SDS011;54508;43.238;25.306;2023-05-10T12:05:35;13.95;;;3.83;;
67715;SDS011;54508;43.238;25.306;2023-05-10T12:08:10;8.85;;;3.90;;
67715;SDS011;54508;43.238;25.306;2023-05-10T12:10:37;12.18;;;3.83;;
67715;SDS011;54508;43.238;25.306;2023-05-10T12:13:03;8.10;;;4.10;;
67715;SDS011;54508;43.238;25.306;2023-05-10T12:15:28;12.03;;;3.67;;
67715;SDS011;54508;43.238;25.306;2023-05-10T12:17:53;12.23;;;4.20;;
67715;SDS011;54508;43.238;25.306;2023-05-10T12:20:20;16.23;;;5.07;;
67715;SDS011;54508;43.238;25.306;2023-05-10T12:22:51;10.48;;;3.60;;
67715;SDS011;54508;43.238;25.306;2023-05-10T12:25:21;7.03;;;3.38;;
67715;SDS011;54508;43.238;25.306;2023-05-10T12:27:51;17.90;;;3.63;;
67715;SDS011;54508;43.238;25.306;2023-05-10T12:30:24;4.85;;;2.97;;
67715;SDS011;54508;43.238;25.306;2023-05-10T12:32:52;5.13;;;3.20;;
67715;SDS011;54508;43.238;25.306;2023-05-10T12:35:18;9.65;;;3.17;;
67715;SDS011;54508;43.238;25.306;2023-05-10T12:37:49;5.68;;;3.10;;
67715;SDS011;54508;43.238;25.306;2023-05-10T12:40:59;10.23;;;3.00;;
67715;SDS011;54508;43.238;25.306;2023-05-10T12:43:25;9.85;;;2.88;;
67715;SDS011;54508;43.238;25.306;2023-05-10T12:45:57;142.05;;;12.40;;
67715;SDS011;54508;43.238;25.306;2023-05-10T12:48:23;183.70;;;15.10;;
67715;SDS011;54508;43.238;25.306;2023-05-10T12:54:48;66.97;;;8.13;;
67715;SDS011;54508;43.238;25.306;2023-05-10T12:57:14;53.30;;;6.70;;
67715;SDS011;54508;43.238;25.306;2023-05-10T12:59:39;55.10;;;7.07;;
67715;SDS011;54508;43.238;25.306;2023-05-10T13:02:05;66.10;;;7.20;;
67715;SDS011;54508;43.238;25.306;2023-05-10T13:04:31;51.58;;;5.68;;
67715;SDS011;54508;43.238;25.306;2023-05-10T13:06:57;36.20;;;7.57;;
67715;SDS011;54508;43.238;25.306;2023-05-10T13:09:26;61.33;;;6.10;;
67715;SDS011;54508;43.238;25.306;2023-05-10T13:11:54;50.90;;;6.57;;
67715;SDS011;54508;43.238;25.306;2023-05-10T13:14:20;28.38;;;4.45;;
67715;SDS011;54508;43.238;25.306;2023-05-10T13:16:46;35.97;;;5.47;;
67715;SDS011;54508;43.238;25.306;2023-05-10T13:19:15;40.13;;;4.75;;
67715;SDS011;54508;43.238;25.306;2023-05-10T13:21:41;21.52;;;4.03;;
67715;SDS011;54508;43.238;25.306;2023-05-10T13:24:07;42.83;;;5.67;;
67715;SDS011;54508;43.238;25.306;2023-05-10T13:26:32;36.75;;;4.93;;
67715;SDS011;54508;43.238;25.306;2023-05-10T13:28:58;16.85;;;4.10;;
67715;SDS011;54508;43.238;25.306;2023-05-10T13:31:24;25.38;;;4.50;;
67715;SDS011;54508;43.238;25.306;2023-05-10T13:33:49;29.70;;;5.17;;
67715;SDS011;54508;43.238;25.306;2023-05-10T13:36:15;22.40;;;4.40;;
67715;SDS011;54508;43.238;25.306;2023-05-10T13:38:40;18.27;;;3.90;;
67715;SDS011;54508;43.238;25.306;2023-05-10T13:41:06;20.50;;;4.50;;
67715;SDS011;54508;43.238;25.306;2023-05-10T13:43:31;33.83;;;4.83;;
67715;SDS011;54508;43.238;25.306;2023-05-10T13:45:57;21.20;;;4.38;;
67715;SDS011;54508;43.238;25.306;2023-05-10T13:48:22;21.13;;;5.13;;
67715;SDS011;54508;43.238;25.306;2023-05-10T13:50:48;27.30;;;4.83;;
67715;SDS011;54508;43.238;25.306;2023-05-10T13:53:13;24.33;;;4.30;;
67715;SDS011;54508;43.238;25.306;2023-05-10T13:55:39;15.50;;;3.97;;
67715;SDS011;54508;43.238;25.306;2023-05-10T13:58:05;11.30;;;3.90;;
67715;SDS011;54508;43.238;25.306;2023-05-10T14:00:30;13.05;;;4.25;;
67715;SDS011;54508;43.238;25.306;2023-05-10T14:02:56;30.00;;;4.23;;
67715;SDS011;54508;43.238;25.306;2023-05-10T14:05:21;13.53;;;4.07;;
67715;SDS011;54508;43.238;25.306;2023-05-10T14:07:48;16.23;;;4.20;;
67715;SDS011;54508;43.238;25.306;2023-05-10T14:10:13;24.10;;;4.53;;
67715;SDS011;54508;43.238;25.306;2023-05-10T14:12:39;11.07;;;3.97;;
67715;SDS011;54508;43.238;25.306;2023-05-10T14:15:04;18.40;;;4.03;;
67715;SDS011;54508;43.238;25.306;2023-05-10T14:17:31;16.50;;;3.67;;
67715;SDS011;54508;43.238;25.306;2023-05-10T14:19:57;7.77;;;2.97;;
67715;SDS011;54508;43.238;25.306;2023-05-10T14:22:22;10.00;;;2.87;;
67715;SDS011;54508;43.238;25.306;2023-05-10T14:24:48;5.93;;;3.00;;
67715;SDS011;54508;43.238;25.306;2023-05-10T14:27:13;10.13;;;2.90;;
67715;SDS011;54508;43.238;25.306;2023-05-10T14:29:40;20.75;;;3.45;;
67715;SDS011;54508;43.238;25.306;2023-05-10T14:32:05;7.87;;;2.80;;
67715;SDS011;54508;43.238;25.306;2023-05-10T14:34:30;13.18;;;3.25;;
67715;SDS011;54508;43.238;25.306;2023-05-10T14:36:56;8.18;;;2.92;;
67715;SDS011;54508;43.238;25.306;2023-05-10T14:39:21;9.73;;;3.20;;
67715;SDS011;54508;43.238;25.306;2023-05-10T14:41:47;11.15;;;3.72;;
67715;SDS011;54508;43.238;25.306;2023-05-10T14:44:13;14.93;;;3.20;;
67715;SDS011;54508;43.238;25.306;2023-05-10T14:46:40;8.77;;;3.20;;
67715;SDS011;54508;43.238;25.306;2023-05-10T14:49:07;13.10;;;3.15;;
67715;SDS011;54508;43.238;25.306;2023-05-10T14:51:32;12.88;;;3.08;;
67715;SDS011;54508;43.238;25.306;2023-05-10T14:53:58;15.77;;;3.40;;
67715;SDS011;54508;43.238;25.306;2023-05-10T14:56:23;5.70;;;3.07;;
67715;SDS011;54508;43.238;25.306;2023-05-10T14:58:50;8.20;;;2.97;;
67715;SDS011;54508;43.238;25.306;2023-05-10T15:01:16;11.33;;;3.33;;
67715;SDS011;54508;43.238;25.306;2023-05-10T15:03:41;6.32;;;3.20;;
67715;SDS011;54508;43.238;25.306;2023-05-10T15:06:07;10.73;;;2.88;;
67715;SDS011;54508;43.238;25.306;2023-05-10T15:08:33;6.72;;;2.92;;
67715;SDS011;54508;43.238;25.306;2023-05-10T15:10:59;11.05;;;3.20;;
67715;SDS011;54508;43.238;25.306;2023-05-10T15:13:24;6.47;;;3.07;;
67715;SDS011;54508;43.238;25.306;2023-05-10T15:15:50;6.17;;;2.77;;
67715;SDS011;54508;43.238;25.306;2023-05-10T15:18:15;8.38;;;2.92;;
67715;SDS011;54508;43.238;25.306;2023-05-10T15:20:41;5.07;;;2.73;;
67715;SDS011;54508;43.238;25.306;2023-05-10T15:23:06;8.13;;;3.33;;